sensor_id;sensor_type;location;lat;lon;timestamp;P1;durP1;ratioP1;P2;durP2;ratioP2
33074;SDS011;19433;51.292;6.868;2023-01-30T00:01:37;28.90;;;21.50;;
33074;SDS011;19433;51.292;6.868;2023-01-30T00:04:03;28.83;;;21.90;;
33074;SDS011;19433;51.292;6.868;2023-01-30T00:06:28;28.80;;;19.47;;
33074;SDS011;19433;51.292;6.868;2023-01-30T00:08:54;30.43;;;21.20;;
33074;SDS011;19433;51.292;6.868;2023-01-30T00:11:19;27.27;;;20.40;;
33074;SDS011;19433;51.292;6.868;2023-01-30T00:13:46;28.33;;;20.47;;
33074;SDS011;19433;51.292;6.868;2023-01-30T00:16:12;28.30;;;21.73;;
33074;SDS011;19433;51.292;6.868;2023-01-30T00:18:38;31.53;;;23.77;;
33074;SDS011;19433;51.292;6.868;2023-01-30T00:21:05;29.37;;;21.60;;
33074;SDS011;19433;51.292;6.868;2023-01-30T00:23:32;28.60;;;21.13;;
33074;SDS011;19433;51.292;6.868;2023-01-30T00:25:59;29.73;;;20.00;;
33074;SDS011;19433;51.292;6.868;2023-01-30T00:28:24;29.17;;;21.83;;
33074;SDS011;19433;51.292;6.868;2023-01-30T00:30:51;31.50;;;19.53;;
33074;SDS011;19433;51.292;6.868;2023-01-30T00:33:17;29.90;;;21.70;;
33074;SDS011;19433;51.292;6.868;2023-01-30T00:35:44;29.97;;;21.47;;
33074;SDS011;19433;51.292;6.868;2023-01-30T00:38:10;25.73;;;20.27;;
33074;SDS011;19433;51.292;6.868;2023-01-30T00:40:36;28.70;;;20.97;;
33074;SDS011;19433;51.292;6.868;2023-01-30T00:43:01;26.90;;;21.47;;
33074;SDS011;19433;51.292;6.868;2023-01-30T00:45:45;32.03;;;23.30;;
33074;SDS011;19433;51.292;6.868;2023-01-30T00:48:30;25.50;;;20.60;;
33074;SDS011;19433;51.292;6.868;2023-01-30T00:50:55;28.00;;;21.67;;
33074;SDS011;19433;51.292;6.868;2023-01-30T00:53:21;27.33;;;20.10;;
33074;SDS011;19433;51.292;6.868;2023-01-30T00:55:46;29.50;;;21.63;;
33074;SDS011;19433;51.292;6.868;2023-01-30T00:58:12;27.17;;;20.10;;
33074;SDS011;19433;51.292;6.868;2023-01-30T01:00:37;27.23;;;20.07;;
33074;SDS011;19433;51.292;6.868;2023-01-30T01:03:03;25.60;;;19.27;;
33074;SDS011;19433;51.292;6.868;2023-01-30T01:05:29;27.40;;;19.47;;
33074;SDS011;19433;51.292;6.868;2023-01-30T01:07:54;28.37;;;19.47;;
33074;SDS011;19433;51.292;6.868;2023-01-30T01:10:20;29.00;;;21.87;;
33074;SDS011;19433;51.292;6.868;2023-01-30T01:12:46;24.47;;;19.70;;
33074;SDS011;19433;51.292;6.868;2023-01-30T01:15:13;28.83;;;21.27;;
33074;SDS011;19433;51.292;6.868;2023-01-30T01:17:39;30.63;;;23.17;;
33074;SDS011;19433;51.292;6.868;2023-01-30T01:20:06;27.37;;;20.87;;
33074;SDS011;19433;51.292;6.868;2023-01-30T01:22:32;32.60;;;22.50;;
33074;SDS011;19433;51.292;6.868;2023-01-30T01:24:58;30.93;;;22.47;;
33074;SDS011;19433;51.292;6.868;2023-01-30T01:27:23;27.87;;;21.23;;
33074;SDS011;19433;51.292;6.868;2023-01-30T01:29:48;26.27;;;20.00;;
33074;SDS011;19433;51.292;6.868;2023-01-30T01:32:13;34.03;;;22.60;;
33074;SDS011;19433;51.292;6.868;2023-01-30T01:34:39;28.97;;;20.60;;
33074;SDS011;19433;51.292;6.868;2023-01-30T01:37:04;31.17;;;22.37;;
33074;SDS011;19433;51.292;6.868;2023-01-30T01:39:29;32.67;;;22.10;;
33074;SDS011;19433;51.292;6.868;2023-01-30T01:42:15;28.43;;;21.10;;
33074;SDS011;19433;51.292;6.868;2023-01-30T01:45:01;26.93;;;21.13;;
33074;SDS011;19433;51.292;6.868;2023-01-30T01:47:37;27.93;;;20.57;;
33074;SDS011;19433;51.292;6.868;2023-01-30T01:50:08;28.33;;;20.33;;
33074;SDS011;19433;51.292;6.868;2023-01-30T01:52:38;25.53;;;19.90;;
33074;SDS011;19433;51.292;6.868;2023-01-30T01:55:04;29.33;;;21.07;;
33074;SDS011;19433;51.292;6.868;2023-01-30T01:57:39;28.00;;;20.40;;
33074;SDS011;19433;51.292;6.868;2023-01-30T02:00:10;29.00;;;20.53;;
33074;SDS011;19433;51.292;6.868;2023-01-30T02:02:40;28.53;;;21.43;;
33074;SDS011;19433;51.292;6.868;2023-01-30T02:05:08;27.93;;;21.20;;
33074;SDS011;19433;51.292;6.868;2023-01-30T02:10:40;30.00;;;22.17;;
33074;SDS011;19433;51.292;6.868;2023-01-30T02:13:07;28.93;;;21.47;;
33074;SDS011;19433;51.292;6.868;2023-01-30T02:15:33;28.73;;;21.37;;
33074;SDS011;19433;51.292;6.868;2023-01-30T02:17:59;30.20;;;20.60;;
33074;SDS011;19433;51.292;6.868;2023-01-30T02:39:55;30.20;;;21.77;;
33074;SDS011;19433;51.292;6.868;2023-01-30T02:48:22;28.27;;;20.00;;
33074;SDS011;19433;51.292;6.868;2023-01-30T02:51:02;27.57;;;20.63;;
33074;SDS011;19433;51.292;6.868;2023-01-30T02:53:33;29.80;;;20.00;;
33074;SDS011;19433;51.292;6.868;2023-01-30T02:56:00;24.07;;;19.40;;
33074;SDS011;19433;51.292;6.868;2023-01-30T02:58:27;23.50;;;20.10;;
33074;SDS011;19433;51.292;6.868;2023-01-30T03:04:08;24.27;;;19.27;;
33074;SDS011;19433;51.292;6.868;2023-01-30T03:10:04;24.97;;;19.90;;
33074;SDS011;19433;51.292;6.868;2023-01-30T03:12:47;26.00;;;20.70;;
33074;SDS011;19433;51.292;6.868;2023-01-30T03:15:24;27.03;;;20.40;;
33074;SDS011;19433;51.292;6.868;2023-01-30T03:17:56;24.40;;;19.80;;
33074;SDS011;19433;51.292;6.868;2023-01-30T03:20:22;24.13;;;19.07;;
33074;SDS011;19433;51.292;6.868;2023-01-30T03:22:48;25.60;;;19.50;;
33074;SDS011;19433;51.292;6.868;2023-01-30T03:25:18;24.20;;;19.47;;
33074;SDS011;19433;51.292;6.868;2023-01-30T03:27:50;27.70;;;21.80;;
33074;SDS011;19433;51.292;6.868;2023-01-30T03:30:18;26.67;;;20.17;;
33074;SDS011;19433;51.292;6.868;2023-01-30T03:32:43;27.07;;;20.87;;
33074;SDS011;19433;51.292;6.868;2023-01-30T03:35:08;29.83;;;20.87;;
33074;SDS011;19433;51.292;6.868;2023-01-30T03:37:33;27.80;;;20.80;;
33074;SDS011;19433;51.292;6.868;2023-01-30T03:39:59;29.03;;;20.43;;
33074;SDS011;19433;51.292;6.868;2023-01-30T03:42:25;29.50;;;22.70;;
33074;SDS011;19433;51.292;6.868;2023-01-30T03:44:50;30.40;;;23.10;;
33074;SDS011;19433;51.292;6.868;2023-01-30T03:47:15;37.10;;;21.97;;
33074;SDS011;19433;51.292;6.868;2023-01-30T03:49:41;30.07;;;22.47;;
33074;SDS011;19433;51.292;6.868;2023-01-30T03:52:06;30.23;;;22.90;;
33074;SDS011;19433;51.292;6.868;2023-01-30T03:54:32;30.70;;;22.27;;
33074;SDS011;19433;51.292;6.868;2023-01-30T03:56:57;28.83;;;20.43;;
33074;SDS011;19433;51.292;6.868;2023-01-30T03:59:22;25.80;;;20.40;;
33074;SDS011;19433;51.292;6.868;2023-01-30T04:01:47;29.80;;;23.03;;
33074;SDS011;19433;51.292;6.868;2023-01-30T04:04:13;30.60;;;22.40;;
33074;SDS011;19433;51.292;6.868;2023-01-30T04:06:38;30.07;;;20.10;;
33074;SDS011;19433;51.292;6.868;2023-01-30T04:09:03;26.70;;;20.87;;
33074;SDS011;19433;51.292;6.868;2023-01-30T04:11:29;31.97;;;23.30;;
33074;SDS011;19433;51.292;6.868;2023-01-30T04:13:54;28.57;;;22.53;;
33074;SDS011;19433;51.292;6.868;2023-01-30T04:16:20;28.30;;;22.73;;
33074;SDS011;19433;51.292;6.868;2023-01-30T04:18:47;32.97;;;20.90;;
33074;SDS011;19433;51.292;6.868;2023-01-30T04:21:13;26.73;;;20.50;;
33074;SDS011;19433;51.292;6.868;2023-01-30T04:23:40;22.47;;;19.37;;
33074;SDS011;19433;51.292;6.868;2023-01-30T04:26:05;28.13;;;22.27;;
33074;SDS011;19433;51.292;6.868;2023-01-30T04:28:31;27.10;;;21.20;;
33074;SDS011;19433;51.292;6.868;2023-01-30T04:30:57;32.97;;;22.70;;
33074;SDS011;19433;51.292;6.868;2023-01-30T04:33:22;33.17;;;23.17;;
33074;SDS011;19433;51.292;6.868;2023-01-30T04:35:51;30.30;;;22.60;;
33074;SDS011;19433;51.292;6.868;2023-01-30T04:38:20;28.50;;;22.27;;
33074;SDS011;19433;51.292;6.868;2023-01-30T04:50:59;31.50;;;22.10;;
33074;SDS011;19433;51.292;6.868;2023-01-30T04:53:24;29.97;;;22.63;;
33074;SDS011;19433;51.292;6.868;2023-01-30T04:55:50;32.30;;;24.00;;
33074;SDS011;19433;51.292;6.868;2023-01-30T04:58:16;34.13;;;23.90;;
33074;SDS011;19433;51.292;6.868;2023-01-30T05:00:45;27.53;;;21.33;;
33074;SDS011;19433;51.292;6.868;2023-01-30T05:03:10;28.00;;;22.33;;
33074;SDS011;19433;51.292;6.868;2023-01-30T05:05:36;31.83;;;22.30;;
33074;SDS011;19433;51.292;6.868;2023-01-30T05:08:01;27.60;;;21.70;;
33074;SDS011;19433;51.292;6.868;2023-01-30T05:10:27;30.87;;;23.50;;
33074;SDS011;19433;51.292;6.868;2023-01-30T05:12:53;30.73;;;23.13;;
33074;SDS011;19433;51.292;6.868;2023-01-30T05:15:18;35.30;;;24.10;;
33074;SDS011;19433;51.292;6.868;2023-01-30T05:17:43;31.13;;;22.00;;
33074;SDS011;19433;51.292;6.868;2023-01-30T05:20:09;30.63;;;24.20;;
33074;SDS011;19433;51.292;6.868;2023-01-30T05:22:35;32.20;;;23.30;;
33074;SDS011;19433;51.292;6.868;2023-01-30T05:25:00;32.93;;;22.53;;
33074;SDS011;19433;51.292;6.868;2023-01-30T05:27:25;29.77;;;23.10;;
33074;SDS011;19433;51.292;6.868;2023-01-30T05:29:51;31.90;;;22.80;;
33074;SDS011;19433;51.292;6.868;2023-01-30T05:32:17;30.53;;;23.93;;
33074;SDS011;19433;51.292;6.868;2023-01-30T05:34:43;31.60;;;23.30;;
33074;SDS011;19433;51.292;6.868;2023-01-30T05:37:09;29.33;;;21.07;;
33074;SDS011;19433;51.292;6.868;2023-01-30T05:39:35;29.23;;;22.50;;
33074;SDS011;19433;51.292;6.868;2023-01-30T05:42:01;31.43;;;21.93;;
33074;SDS011;19433;51.292;6.868;2023-01-30T05:44:26;25.53;;;19.67;;
33074;SDS011;19433;51.292;6.868;2023-01-30T05:46:52;25.67;;;21.33;;
33074;SDS011;19433;51.292;6.868;2023-01-30T05:49:17;25.10;;;19.33;;
33074;SDS011;19433;51.292;6.868;2023-01-30T05:51:42;27.13;;;20.10;;
33074;SDS011;19433;51.292;6.868;2023-01-30T05:54:08;26.93;;;20.40;;
33074;SDS011;19433;51.292;6.868;2023-01-30T05:56:33;24.27;;;19.60;;
33074;SDS011;19433;51.292;6.868;2023-01-30T05:58:59;25.90;;;19.77;;
33074;SDS011;19433;51.292;6.868;2023-01-30T06:01:25;26.90;;;19.97;;
33074;SDS011;19433;51.292;6.868;2023-01-30T06:03:52;25.87;;;20.97;;
33074;SDS011;19433;51.292;6.868;2023-01-30T06:06:18;23.70;;;18.53;;
33074;SDS011;19433;51.292;6.868;2023-01-30T06:08:43;21.90;;;18.40;;
33074;SDS011;19433;51.292;6.868;2023-01-30T06:11:10;24.93;;;18.70;;
33074;SDS011;19433;51.292;6.868;2023-01-30T06:13:37;23.40;;;18.10;;
33074;SDS011;19433;51.292;6.868;2023-01-30T06:16:03;25.60;;;19.17;;
33074;SDS011;19433;51.292;6.868;2023-01-30T06:18:30;23.87;;;16.53;;
33074;SDS011;19433;51.292;6.868;2023-01-30T06:20:55;25.83;;;18.60;;
33074;SDS011;19433;51.292;6.868;2023-01-30T06:23:21;23.90;;;18.07;;
33074;SDS011;19433;51.292;6.868;2023-01-30T06:25:49;27.20;;;18.90;;
33074;SDS011;19433;51.292;6.868;2023-01-30T06:28:16;23.83;;;18.20;;
33074;SDS011;19433;51.292;6.868;2023-01-30T06:30:42;24.73;;;19.67;;
33074;SDS011;19433;51.292;6.868;2023-01-30T06:33:07;20.43;;;16.53;;
33074;SDS011;19433;51.292;6.868;2023-01-30T06:35:36;21.13;;;16.97;;
33074;SDS011;19433;51.292;6.868;2023-01-30T06:38:02;22.10;;;16.87;;
33074;SDS011;19433;51.292;6.868;2023-01-30T06:40:27;22.57;;;15.97;;
33074;SDS011;19433;51.292;6.868;2023-01-30T06:42:53;20.40;;;15.70;;
33074;SDS011;19433;51.292;6.868;2023-01-30T06:45:18;27.23;;;18.27;;
33074;SDS011;19433;51.292;6.868;2023-01-30T06:47:48;25.07;;;18.13;;
33074;SDS011;19433;51.292;6.868;2023-01-30T06:50:14;23.30;;;17.30;;
33074;SDS011;19433;51.292;6.868;2023-01-30T06:52:41;22.17;;;17.53;;
33074;SDS011;19433;51.292;6.868;2023-01-30T06:55:07;22.03;;;17.70;;
33074;SDS011;19433;51.292;6.868;2023-01-30T06:57:34;22.70;;;17.80;;
33074;SDS011;19433;51.292;6.868;2023-01-30T06:59:59;29.63;;;18.50;;
33074;SDS011;19433;51.292;6.868;2023-01-30T07:02:24;22.30;;;19.40;;
33074;SDS011;19433;51.292;6.868;2023-01-30T07:04:51;21.77;;;18.17;;
33074;SDS011;19433;51.292;6.868;2023-01-30T07:07:16;26.17;;;17.93;;
33074;SDS011;19433;51.292;6.868;2023-01-30T07:09:41;23.07;;;17.27;;
33074;SDS011;19433;51.292;6.868;2023-01-30T07:12:06;25.10;;;17.87;;
33074;SDS011;19433;51.292;6.868;2023-01-30T07:14:32;27.23;;;18.27;;
33074;SDS011;19433;51.292;6.868;2023-01-30T07:16:57;22.37;;;18.33;;
33074;SDS011;19433;51.292;6.868;2023-01-30T07:19:22;25.50;;;18.10;;
33074;SDS011;19433;51.292;6.868;2023-01-30T07:21:48;22.00;;;18.60;;
33074;SDS011;19433;51.292;6.868;2023-01-30T07:24:14;26.70;;;17.67;;
33074;SDS011;19433;51.292;6.868;2023-01-30T07:26:39;25.73;;;18.00;;
33074;SDS011;19433;51.292;6.868;2023-01-30T07:29:05;24.10;;;19.40;;
33074;SDS011;19433;51.292;6.868;2023-01-30T07:31:31;22.70;;;17.13;;
33074;SDS011;19433;51.292;6.868;2023-01-30T07:33:56;26.40;;;19.37;;
33074;SDS011;19433;51.292;6.868;2023-01-30T07:36:21;24.33;;;19.80;;
33074;SDS011;19433;51.292;6.868;2023-01-30T07:38:47;31.13;;;18.27;;
33074;SDS011;19433;51.292;6.868;2023-01-30T07:41:13;26.57;;;18.93;;
33074;SDS011;19433;51.292;6.868;2023-01-30T07:43:38;28.40;;;19.53;;
33074;SDS011;19433;51.292;6.868;2023-01-30T07:46:04;23.80;;;18.57;;
33074;SDS011;19433;51.292;6.868;2023-01-30T07:48:29;28.60;;;18.67;;
33074;SDS011;19433;51.292;6.868;2023-01-30T07:50:54;23.87;;;18.43;;
33074;SDS011;19433;51.292;6.868;2023-01-30T07:53:21;20.57;;;18.37;;
33074;SDS011;19433;51.292;6.868;2023-01-30T07:55:46;21.00;;;16.83;;
33074;SDS011;19433;51.292;6.868;2023-01-30T07:58:14;25.10;;;18.50;;
33074;SDS011;19433;51.292;6.868;2023-01-30T08:00:40;30.80;;;16.63;;
33074;SDS011;19433;51.292;6.868;2023-01-30T08:03:10;25.37;;;16.27;;
33074;SDS011;19433;51.292;6.868;2023-01-30T08:05:36;22.17;;;17.43;;
33074;SDS011;19433;51.292;6.868;2023-01-30T08:08:01;25.90;;;16.80;;
33074;SDS011;19433;51.292;6.868;2023-01-30T08:10:27;20.67;;;16.27;;
33074;SDS011;19433;51.292;6.868;2023-01-30T08:12:52;19.70;;;16.60;;
33074;SDS011;19433;51.292;6.868;2023-01-30T08:15:17;17.57;;;15.67;;
33074;SDS011;19433;51.292;6.868;2023-01-30T08:17:43;20.17;;;15.70;;
33074;SDS011;19433;51.292;6.868;2023-01-30T08:20:08;20.53;;;15.33;;
33074;SDS011;19433;51.292;6.868;2023-01-30T08:22:34;18.30;;;16.40;;
33074;SDS011;19433;51.292;6.868;2023-01-30T08:24:59;18.77;;;15.17;;
33074;SDS011;19433;51.292;6.868;2023-01-30T08:27:25;21.90;;;15.87;;
33074;SDS011;19433;51.292;6.868;2023-01-30T08:29:50;18.90;;;15.00;;
33074;SDS011;19433;51.292;6.868;2023-01-30T08:32:15;17.57;;;14.90;;
33074;SDS011;19433;51.292;6.868;2023-01-30T08:34:40;17.37;;;14.00;;
33074;SDS011;19433;51.292;6.868;2023-01-30T08:37:06;19.87;;;15.03;;
33074;SDS011;19433;51.292;6.868;2023-01-30T08:39:31;17.70;;;15.70;;
33074;SDS011;19433;51.292;6.868;2023-01-30T08:41:56;25.27;;;15.37;;
33074;SDS011;19433;51.292;6.868;2023-01-30T08:44:22;17.67;;;14.20;;
33074;SDS011;19433;51.292;6.868;2023-01-30T08:46:47;20.03;;;13.63;;
33074;SDS011;19433;51.292;6.868;2023-01-30T08:49:12;22.17;;;13.67;;
33074;SDS011;19433;51.292;6.868;2023-01-30T08:51:38;22.47;;;14.90;;
33074;SDS011;19433;51.292;6.868;2023-01-30T08:54:03;21.97;;;14.67;;
33074;SDS011;19433;51.292;6.868;2023-01-30T08:56:31;18.53;;;14.20;;
33074;SDS011;19433;51.292;6.868;2023-01-30T08:58:57;19.90;;;13.20;;
33074;SDS011;19433;51.292;6.868;2023-01-30T09:01:22;19.70;;;12.30;;
33074;SDS011;19433;51.292;6.868;2023-01-30T09:03:47;12.93;;;10.80;;
33074;SDS011;19433;51.292;6.868;2023-01-30T09:06:12;16.13;;;10.47;;
33074;SDS011;19433;51.292;6.868;2023-01-30T09:08:38;12.70;;;10.27;;
33074;SDS011;19433;51.292;6.868;2023-01-30T09:11:03;17.10;;;9.90;;
33074;SDS011;19433;51.292;6.868;2023-01-30T09:13:30;15.00;;;8.60;;
33074;SDS011;19433;51.292;6.868;2023-01-30T09:15:56;16.27;;;7.23;;
33074;SDS011;19433;51.292;6.868;2023-01-30T09:18:22;13.63;;;8.40;;
33074;SDS011;19433;51.292;6.868;2023-01-30T09:20:48;11.33;;;7.13;;
33074;SDS011;19433;51.292;6.868;2023-01-30T09:23:13;13.50;;;6.73;;
33074;SDS011;19433;51.292;6.868;2023-01-30T09:25:39;9.93;;;6.00;;
33074;SDS011;19433;51.292;6.868;2023-01-30T09:28:04;9.10;;;4.63;;
33074;SDS011;19433;51.292;6.868;2023-01-30T09:30:30;14.70;;;5.67;;
33074;SDS011;19433;51.292;6.868;2023-01-30T09:32:55;10.80;;;5.10;;
33074;SDS011;19433;51.292;6.868;2023-01-30T09:35:20;22.80;;;5.60;;
33074;SDS011;19433;51.292;6.868;2023-01-30T09:37:49;10.13;;;4.37;;
33074;SDS011;19433;51.292;6.868;2023-01-30T09:40:16;9.20;;;4.77;;
33074;SDS011;19433;51.292;6.868;2023-01-30T09:42:51;13.37;;;5.80;;
33074;SDS011;19433;51.292;6.868;2023-01-30T09:45:40;12.93;;;4.47;;
33074;SDS011;19433;51.292;6.868;2023-01-30T09:48:16;9.73;;;4.23;;
33074;SDS011;19433;51.292;6.868;2023-01-30T09:53:35;7.83;;;3.63;;
33074;SDS011;19433;51.292;6.868;2023-01-30T09:56:11;8.47;;;4.13;;
33074;SDS011;19433;51.292;6.868;2023-01-30T10:01:20;13.43;;;4.27;;
33074;SDS011;19433;51.292;6.868;2023-01-30T10:04:08;11.23;;;4.57;;
33074;SDS011;19433;51.292;6.868;2023-01-30T10:06:52;10.33;;;3.47;;
33074;SDS011;19433;51.292;6.868;2023-01-30T10:15:24;11.70;;;3.47;;
33074;SDS011;19433;51.292;6.868;2023-01-30T10:20:37;13.43;;;3.80;;
33074;SDS011;19433;51.292;6.868;2023-01-30T10:25:43;12.20;;;4.10;;
33074;SDS011;19433;51.292;6.868;2023-01-30T10:28:15;12.60;;;3.83;;
33074;SDS011;19433;51.292;6.868;2023-01-30T10:30:51;11.00;;;3.73;;
33074;SDS011;19433;51.292;6.868;2023-01-30T10:33:28;9.33;;;3.10;;
33074;SDS011;19433;51.292;6.868;2023-01-30T10:36:08;10.50;;;3.70;;
33074;SDS011;19433;51.292;6.868;2023-01-30T10:38:39;10.50;;;3.60;;
33074;SDS011;19433;51.292;6.868;2023-01-30T10:43:57;13.33;;;3.70;;
33074;SDS011;19433;51.292;6.868;2023-01-30T10:49:25;9.70;;;4.10;;
33074;SDS011;19433;51.292;6.868;2023-01-30T10:55:25;9.60;;;3.97;;
33074;SDS011;19433;51.292;6.868;2023-01-30T11:10:15;9.03;;;3.00;;
33074;SDS011;19433;51.292;6.868;2023-01-30T11:16:07;10.43;;;3.40;;
33074;SDS011;19433;51.292;6.868;2023-01-30T11:21:36;11.30;;;3.93;;
33074;SDS011;19433;51.292;6.868;2023-01-30T11:24:11;9.70;;;2.90;;
33074;SDS011;19433;51.292;6.868;2023-01-30T11:26:41;9.60;;;4.17;;
33074;SDS011;19433;51.292;6.868;2023-01-30T11:35:30;14.60;;;3.13;;
33074;SDS011;19433;51.292;6.868;2023-01-30T11:44:26;8.90;;;2.90;;
33074;SDS011;19433;51.292;6.868;2023-01-30T11:49:46;13.20;;;3.60;;
33074;SDS011;19433;51.292;6.868;2023-01-30T11:52:22;12.63;;;3.30;;
33074;SDS011;19433;51.292;6.868;2023-01-30T12:05:23;9.13;;;2.70;;
33074;SDS011;19433;51.292;6.868;2023-01-30T12:07:54;12.23;;;3.07;;
33074;SDS011;19433;51.292;6.868;2023-01-30T12:13:50;10.83;;;3.03;;
33074;SDS011;19433;51.292;6.868;2023-01-30T12:25:51;8.43;;;2.67;;
33074;SDS011;19433;51.292;6.868;2023-01-30T12:45:10;11.07;;;4.77;;
33074;SDS011;19433;51.292;6.868;2023-01-30T12:51:16;7.63;;;2.60;;
33074;SDS011;19433;51.292;6.868;2023-01-30T12:59:51;11.53;;;3.53;;
33074;SDS011;19433;51.292;6.868;2023-01-30T13:16:19;10.13;;;3.87;;
33074;SDS011;19433;51.292;6.868;2023-01-30T13:19:16;11.40;;;3.53;;
33074;SDS011;19433;51.292;6.868;2023-01-30T13:34:54;15.77;;;3.60;;
33074;SDS011;19433;51.292;6.868;2023-01-30T13:37:20;8.90;;;3.80;;
33074;SDS011;19433;51.292;6.868;2023-01-30T13:40:03;8.17;;;3.10;;
33074;SDS011;19433;51.292;6.868;2023-01-30T14:01:20;17.20;;;4.53;;
33074;SDS011;19433;51.292;6.868;2023-01-30T14:10:12;10.37;;;3.53;;
33074;SDS011;19433;51.292;6.868;2023-01-30T14:12:50;21.23;;;3.50;;
33074;SDS011;19433;51.292;6.868;2023-01-30T14:18:12;14.43;;;4.13;;
33074;SDS011;19433;51.292;6.868;2023-01-30T14:21:28;12.53;;;3.90;;
33074;SDS011;19433;51.292;6.868;2023-01-30T14:35:24;8.90;;;3.30;;
33074;SDS011;19433;51.292;6.868;2023-01-30T14:52:43;10.43;;;3.60;;
33074;SDS011;19433;51.292;6.868;2023-01-30T15:17:06;14.47;;;3.27;;
33074;SDS011;19433;51.292;6.868;2023-01-30T15:49:45;16.60;;;4.40;;
33074;SDS011;19433;51.292;6.868;2023-01-30T16:19:43;27.10;;;4.83;;
33074;SDS011;19433;51.292;6.868;2023-01-30T16:22:14;15.93;;;4.17;;
33074;SDS011;19433;51.292;6.868;2023-01-30T16:24:42;14.30;;;4.40;;
33074;SDS011;19433;51.292;6.868;2023-01-30T16:27:19;18.53;;;4.70;;
33074;SDS011;19433;51.292;6.868;2023-01-30T16:33:49;9.67;;;3.40;;
33074;SDS011;19433;51.292;6.868;2023-01-30T16:38:44;11.73;;;4.03;;
33074;SDS011;19433;51.292;6.868;2023-01-30T16:41:30;17.03;;;3.67;;
33074;SDS011;19433;51.292;6.868;2023-01-30T16:50:09;13.57;;;3.47;;
33074;SDS011;19433;51.292;6.868;2023-01-30T16:52:08;13.37;;;3.53;;
33074;SDS011;19433;51.292;6.868;2023-01-30T16:54:38;20.83;;;4.97;;
33074;SDS011;19433;51.292;6.868;2023-01-30T16:57:17;13.70;;;4.23;;
33074;SDS011;19433;51.292;6.868;2023-01-30T17:00:01;13.20;;;4.00;;
33074;SDS011;19433;51.292;6.868;2023-01-30T17:02:33;11.80;;;3.40;;
33074;SDS011;19433;51.292;6.868;2023-01-30T17:05:19;18.83;;;6.50;;
33074;SDS011;19433;51.292;6.868;2023-01-30T17:07:47;10.93;;;4.30;;
33074;SDS011;19433;51.292;6.868;2023-01-30T17:13:04;14.73;;;4.47;;
33074;SDS011;19433;51.292;6.868;2023-01-30T17:16:34;15.20;;;4.03;;
33074;SDS011;19433;51.292;6.868;2023-01-30T17:18:57;15.83;;;4.73;;
33074;SDS011;19433;51.292;6.868;2023-01-30T17:21:24;17.60;;;4.63;;
33074;SDS011;19433;51.292;6.868;2023-01-30T17:24:05;15.27;;;4.10;;
33074;SDS011;19433;51.292;6.868;2023-01-30T17:26:31;13.27;;;4.27;;
33074;SDS011;19433;51.292;6.868;2023-01-30T17:28:57;13.50;;;4.00;;
33074;SDS011;19433;51.292;6.868;2023-01-30T17:31:23;12.53;;;3.83;;
33074;SDS011;19433;51.292;6.868;2023-01-30T17:33:48;23.03;;;5.13;;
33074;SDS011;19433;51.292;6.868;2023-01-30T17:36:26;18.77;;;5.80;;
33074;SDS011;19433;51.292;6.868;2023-01-30T17:38:53;15.43;;;4.60;;
33074;SDS011;19433;51.292;6.868;2023-01-30T17:43:46;14.47;;;5.23;;
33074;SDS011;19433;51.292;6.868;2023-01-30T17:46:11;19.53;;;4.83;;
33074;SDS011;19433;51.292;6.868;2023-01-30T17:48:37;14.17;;;4.50;;
33074;SDS011;19433;51.292;6.868;2023-01-30T17:51:02;12.63;;;4.30;;
33074;SDS011;19433;51.292;6.868;2023-01-30T17:53:27;14.00;;;4.70;;
33074;SDS011;19433;51.292;6.868;2023-01-30T17:55:53;13.73;;;3.67;;
33074;SDS011;19433;51.292;6.868;2023-01-30T17:58:18;14.00;;;4.83;;
33074;SDS011;19433;51.292;6.868;2023-01-30T18:00:43;12.47;;;4.23;;
33074;SDS011;19433;51.292;6.868;2023-01-30T18:03:09;22.90;;;4.33;;
33074;SDS011;19433;51.292;6.868;2023-01-30T18:05:34;13.63;;;4.23;;
33074;SDS011;19433;51.292;6.868;2023-01-30T18:08:00;12.67;;;4.80;;
33074;SDS011;19433;51.292;6.868;2023-01-30T18:10:25;19.10;;;4.27;;
33074;SDS011;19433;51.292;6.868;2023-01-30T18:12:51;14.10;;;4.50;;
33074;SDS011;19433;51.292;6.868;2023-01-30T18:15:16;15.90;;;3.97;;
33074;SDS011;19433;51.292;6.868;2023-01-30T18:17:43;16.70;;;5.43;;
33074;SDS011;19433;51.292;6.868;2023-01-30T18:20:10;12.80;;;4.17;;
33074;SDS011;19433;51.292;6.868;2023-01-30T18:22:37;17.87;;;5.17;;
33074;SDS011;19433;51.292;6.868;2023-01-30T18:25:02;25.23;;;5.00;;
33074;SDS011;19433;51.292;6.868;2023-01-30T18:27:27;14.60;;;4.77;;
33074;SDS011;19433;51.292;6.868;2023-01-30T18:29:53;16.10;;;4.60;;
33074;SDS011;19433;51.292;6.868;2023-01-30T18:32:18;13.80;;;4.17;;
33074;SDS011;19433;51.292;6.868;2023-01-30T18:34:43;15.03;;;4.27;;
33074;SDS011;19433;51.292;6.868;2023-01-30T18:37:08;15.63;;;4.10;;
33074;SDS011;19433;51.292;6.868;2023-01-30T18:39:34;21.50;;;4.40;;
33074;SDS011;19433;51.292;6.868;2023-01-30T18:42:00;10.40;;;4.27;;
33074;SDS011;19433;51.292;6.868;2023-01-30T18:44:27;22.03;;;4.97;;
33074;SDS011;19433;51.292;6.868;2023-01-30T18:46:53;11.33;;;3.47;;
33074;SDS011;19433;51.292;6.868;2023-01-30T18:49:18;23.50;;;5.63;;
33074;SDS011;19433;51.292;6.868;2023-01-30T18:51:44;10.80;;;4.83;;
33074;SDS011;19433;51.292;6.868;2023-01-30T18:54:10;9.87;;;3.70;;
33074;SDS011;19433;51.292;6.868;2023-01-30T18:56:35;12.43;;;4.80;;
33074;SDS011;19433;51.292;6.868;2023-01-30T18:59:01;15.77;;;5.30;;
33074;SDS011;19433;51.292;6.868;2023-01-30T19:01:28;15.23;;;4.97;;
33074;SDS011;19433;51.292;6.868;2023-01-30T19:03:59;12.40;;;4.07;;
33074;SDS011;19433;51.292;6.868;2023-01-30T19:06:27;14.23;;;5.20;;
33074;SDS011;19433;51.292;6.868;2023-01-30T19:08:54;24.33;;;5.90;;
33074;SDS011;19433;51.292;6.868;2023-01-30T19:11:20;20.03;;;5.13;;
33074;SDS011;19433;51.292;6.868;2023-01-30T19:14:05;22.37;;;5.83;;
33074;SDS011;19433;51.292;6.868;2023-01-30T19:16:31;16.90;;;5.80;;
33074;SDS011;19433;51.292;6.868;2023-01-30T19:18:58;20.27;;;6.53;;
33074;SDS011;19433;51.292;6.868;2023-01-30T19:21:24;11.43;;;4.40;;
33074;SDS011;19433;51.292;6.868;2023-01-30T19:23:51;9.30;;;4.30;;
33074;SDS011;19433;51.292;6.868;2023-01-30T19:26:17;11.80;;;4.40;;
33074;SDS011;19433;51.292;6.868;2023-01-30T19:28:44;20.10;;;5.23;;
33074;SDS011;19433;51.292;6.868;2023-01-30T19:31:11;15.07;;;4.60;;
33074;SDS011;19433;51.292;6.868;2023-01-30T19:33:38;17.80;;;4.27;;
33074;SDS011;19433;51.292;6.868;2023-01-30T19:36:08;17.27;;;4.60;;
33074;SDS011;19433;51.292;6.868;2023-01-30T19:38:34;14.13;;;4.30;;
33074;SDS011;19433;51.292;6.868;2023-01-30T19:41:00;21.27;;;4.40;;
33074;SDS011;19433;51.292;6.868;2023-01-30T19:43:25;11.50;;;4.20;;
33074;SDS011;19433;51.292;6.868;2023-01-30T19:45:57;10.00;;;4.97;;
33074;SDS011;19433;51.292;6.868;2023-01-30T19:48:24;15.53;;;4.40;;
33074;SDS011;19433;51.292;6.868;2023-01-30T19:50:50;16.40;;;4.60;;
33074;SDS011;19433;51.292;6.868;2023-01-30T19:53:15;15.87;;;4.33;;
33074;SDS011;19433;51.292;6.868;2023-01-30T19:55:40;13.30;;;4.03;;
33074;SDS011;19433;51.292;6.868;2023-01-30T19:58:06;13.27;;;4.67;;
33074;SDS011;19433;51.292;6.868;2023-01-30T20:00:32;19.40;;;5.17;;
33074;SDS011;19433;51.292;6.868;2023-01-30T20:02:57;16.33;;;4.50;;
33074;SDS011;19433;51.292;6.868;2023-01-30T20:05:23;27.60;;;5.00;;
33074;SDS011;19433;51.292;6.868;2023-01-30T20:07:48;23.43;;;4.17;;